Terminal Aerodrome Forecast
Issued by NWS

Home | Current Version | Previous Version | Text Only | Print | Product List | Glossary On
Versions: 1 2 3 4 5 6 7 8 9 10 11 12 13 14 15 16 17 18 19 20 21 22 23 24 25 26 27 28 29 30 31 32 33 34 35 36 37 38 39 40 41 42 43 44 45
000
FTUS43 KDMX 260520
TAFOTM
TAF
KOTM 260520Z 2606/2706 13008KT P6SM SCT040 OVC120
     FM261000 10010KT P6SM OVC040
     FM261200 13010KT 4SM -SN SCT014 OVC020
     FM261900 03009KT 2SM -SN OVC012
     FM262200 35012G20KT 5SM -SN OVC020
     FM270200 32015G22KT P6SM OVC030=

USA.gov is the U.S. government's official web portal to all federal, state and local government web resources and services.